sensor_id;sensor_type;location;lat;lon;timestamp;temperature;humidity
68648;SHT31;55632;51.962;16.116;2022-11-28T00:00:23;2.98;93.20
68648;SHT31;55632;51.962;16.116;2022-11-28T00:05:24;2.91;93.35
68648;SHT31;55632;51.962;16.116;2022-11-28T00:10:24;2.91;93.37
68648;SHT31;55632;51.962;16.116;2022-11-28T00:15:28;2.84;93.35
68648;SHT31;55632;51.962;16.116;2022-11-28T00:20:29;2.75;93.38
68648;SHT31;55632;51.962;16.116;2022-11-28T00:25:30;2.77;93.54
68648;SHT31;55632;51.962;16.116;2022-11-28T00:30:34;2.78;93.97
68648;SHT31;55632;51.962;16.116;2022-11-28T00:35:35;2.84;94.14
68648;SHT31;55632;51.962;16.116;2022-11-28T00:40:35;2.91;94.86
68648;SHT31;55632;51.962;16.116;2022-11-28T00:45:36;3.02;94.86
68648;SHT31;55632;51.962;16.116;2022-11-28T00:50:37;3.09;95.39
68648;SHT31;55632;51.962;16.116;2022-11-28T00:55:38;3.16;95.12
68648;SHT31;55632;51.962;16.116;2022-11-28T01:00:39;3.24;94.86
68648;SHT31;55632;51.962;16.116;2022-11-28T01:05:40;3.31;95.28
68648;SHT31;55632;51.962;16.116;2022-11-28T01:10:43;3.37;95.05
68648;SHT31;55632;51.962;16.116;2022-11-28T01:15:44;3.43;95.02
68648;SHT31;55632;51.962;16.116;2022-11-28T01:20:45;3.45;95.13
68648;SHT31;55632;51.962;16.116;2022-11-28T01:25:46;3.45;94.96
68648;SHT31;55632;51.962;16.116;2022-11-28T01:30:46;3.48;94.82
68648;SHT31;55632;51.962;16.116;2022-11-28T01:35:56;3.47;94.86
68648;SHT31;55632;51.962;16.116;2022-11-28T01:41:01;3.47;94.68
68648;SHT31;55632;51.962;16.116;2022-11-28T01:46:04;3.45;94.61
68648;SHT31;55632;51.962;16.116;2022-11-28T01:51:07;3.45;94.56
68648;SHT31;55632;51.962;16.116;2022-11-28T01:56:15;3.47;94.49
68648;SHT31;55632;51.962;16.116;2022-11-28T02:01:17;3.44;94.43
68648;SHT31;55632;51.962;16.116;2022-11-28T02:06:21;3.43;94.30
68648;SHT31;55632;51.962;16.116;2022-11-28T02:33:06;3.16;94.08
68648;SHT31;55632;51.962;16.116;2022-11-28T02:38:19;3.10;93.97
68648;SHT31;55632;51.962;16.116;2022-11-28T02:43:51;3.03;93.93
68648;SHT31;55632;51.962;16.116;2022-11-28T02:49:06;2.93;93.87
68648;SHT31;55632;51.962;16.116;2022-11-28T02:54:10;2.89;93.94
68648;SHT31;55632;51.962;16.116;2022-11-28T02:59:32;2.87;93.97
68648;SHT31;55632;51.962;16.116;2022-11-28T03:04:56;2.85;93.92
68648;SHT31;55632;51.962;16.116;2022-11-28T03:15:04;2.74;93.91
68648;SHT31;55632;51.962;16.116;2022-11-28T03:25:48;2.60;93.75
68648;SHT31;55632;51.962;16.116;2022-11-28T03:30:59;2.53;93.59
68648;SHT31;55632;51.962;16.116;2022-11-28T03:36:11;2.46;93.60
68648;SHT31;55632;51.962;16.116;2022-11-28T03:41:35;2.34;93.62
68648;SHT31;55632;51.962;16.116;2022-11-28T03:46:46;2.26;93.49
68648;SHT31;55632;51.962;16.116;2022-11-28T03:51:53;2.18;93.48
68648;SHT31;55632;51.962;16.116;2022-11-28T03:57:16;2.11;93.43
68648;SHT31;55632;51.962;16.116;2022-11-28T04:02:41;2.01;93.44
68648;SHT31;55632;51.962;16.116;2022-11-28T04:08:15;2.01;93.46
68648;SHT31;55632;51.962;16.116;2022-11-28T04:13:18;1.93;93.50
68648;SHT31;55632;51.962;16.116;2022-11-28T04:18:24;1.89;93.45
68648;SHT31;55632;51.962;16.116;2022-11-28T04:23:27;1.87;93.44
68648;SHT31;55632;51.962;16.116;2022-11-28T04:28:32;1.81;93.43
68648;SHT31;55632;51.962;16.116;2022-11-28T04:33:38;1.79;93.44
68648;SHT31;55632;51.962;16.116;2022-11-28T04:38:40;1.75;93.45
68648;SHT31;55632;51.962;16.116;2022-11-28T04:44:06;1.73;93.37
68648;SHT31;55632;51.962;16.116;2022-11-28T04:49:09;1.67;93.35
68648;SHT31;55632;51.962;16.116;2022-11-28T04:59:21;1.57;93.31
68648;SHT31;55632;51.962;16.116;2022-11-28T05:04:24;1.53;93.30
68648;SHT31;55632;51.962;16.116;2022-11-28T05:09:24;1.47;93.24
68648;SHT31;55632;51.962;16.116;2022-11-28T05:14:25;1.42;93.23
68648;SHT31;55632;51.962;16.116;2022-11-28T05:19:26;1.38;93.25
68648;SHT31;55632;51.962;16.116;2022-11-28T05:24:26;1.35;93.25
68648;SHT31;55632;51.962;16.116;2022-11-28T05:29:27;1.31;93.30
68648;SHT31;55632;51.962;16.116;2022-11-28T05:34:28;1.26;93.29
68648;SHT31;55632;51.962;16.116;2022-11-28T05:39:31;1.22;93.30
68648;SHT31;55632;51.962;16.116;2022-11-28T05:44:31;1.21;93.31
68648;SHT31;55632;51.962;16.116;2022-11-28T05:49:32;1.16;93.28
68648;SHT31;55632;51.962;16.116;2022-11-28T05:54:33;1.15;93.21
68648;SHT31;55632;51.962;16.116;2022-11-28T05:59:34;1.11;93.17
68648;SHT31;55632;51.962;16.116;2022-11-28T06:04:35;1.07;93.13
68648;SHT31;55632;51.962;16.116;2022-11-28T06:09:36;0.99;93.13
68648;SHT31;55632;51.962;16.116;2022-11-28T06:14:36;0.98;93.14
68648;SHT31;55632;51.962;16.116;2022-11-28T06:19:37;0.97;93.24
68648;SHT31;55632;51.962;16.116;2022-11-28T06:24:38;0.98;93.23
68648;SHT31;55632;51.962;16.116;2022-11-28T06:29:39;0.97;93.18
68648;SHT31;55632;51.962;16.116;2022-11-28T06:34:39;0.98;93.12
68648;SHT31;55632;51.962;16.116;2022-11-28T06:39:40;0.98;93.09
68648;SHT31;55632;51.962;16.116;2022-11-28T06:44:41;0.94;92.99
68648;SHT31;55632;51.962;16.116;2022-11-28T06:49:42;0.94;92.94
68648;SHT31;55632;51.962;16.116;2022-11-28T06:54:42;0.94;92.95
68648;SHT31;55632;51.962;16.116;2022-11-28T06:59:43;0.94;92.91
68648;SHT31;55632;51.962;16.116;2022-11-28T07:04:44;0.92;92.87
68648;SHT31;55632;51.962;16.116;2022-11-28T07:09:45;0.92;92.92
68648;SHT31;55632;51.962;16.116;2022-11-28T07:14:46;0.91;92.81
68648;SHT31;55632;51.962;16.116;2022-11-28T07:19:47;0.91;92.75
68648;SHT31;55632;51.962;16.116;2022-11-28T07:24:47;0.90;92.80
68648;SHT31;55632;51.962;16.116;2022-11-28T07:29:48;0.87;93.01
68648;SHT31;55632;51.962;16.116;2022-11-28T07:34:49;0.87;93.07
68648;SHT31;55632;51.962;16.116;2022-11-28T07:39:49;0.88;93.19
68648;SHT31;55632;51.962;16.116;2022-11-28T07:44:50;0.88;93.26
68648;SHT31;55632;51.962;16.116;2022-11-28T07:49:51;0.92;93.35
68648;SHT31;55632;51.962;16.116;2022-11-28T07:54:52;0.92;93.51
68648;SHT31;55632;51.962;16.116;2022-11-28T07:59:53;0.95;93.53
68648;SHT31;55632;51.962;16.116;2022-11-28T08:04:53;0.99;93.66
68648;SHT31;55632;51.962;16.116;2022-11-28T08:09:54;1.01;93.63
68648;SHT31;55632;51.962;16.116;2022-11-28T08:14:55;1.02;93.53
68648;SHT31;55632;51.962;16.116;2022-11-28T08:19:56;1.04;93.59
68648;SHT31;55632;51.962;16.116;2022-11-28T08:24:57;1.05;93.64
68648;SHT31;55632;51.962;16.116;2022-11-28T08:29:57;1.11;93.59
68648;SHT31;55632;51.962;16.116;2022-11-28T08:34:58;1.12;93.51
68648;SHT31;55632;51.962;16.116;2022-11-28T08:39:59;1.14;93.51
68648;SHT31;55632;51.962;16.116;2022-11-28T08:45:00;1.16;93.72
68648;SHT31;55632;51.962;16.116;2022-11-28T08:50:01;1.24;93.70
68648;SHT31;55632;51.962;16.116;2022-11-28T08:55:02;1.33;93.69
68648;SHT31;55632;51.962;16.116;2022-11-28T09:00:03;1.40;93.68
68648;SHT31;55632;51.962;16.116;2022-11-28T09:05:05;1.47;93.62
68648;SHT31;55632;51.962;16.116;2022-11-28T09:10:07;1.50;93.42
68648;SHT31;55632;51.962;16.116;2022-11-28T09:15:08;1.54;93.58
68648;SHT31;55632;51.962;16.116;2022-11-28T09:20:09;1.60;93.41
68648;SHT31;55632;51.962;16.116;2022-11-28T09:25:10;1.66;93.42
68648;SHT31;55632;51.962;16.116;2022-11-28T09:30:14;1.74;93.39
68648;SHT31;55632;51.962;16.116;2022-11-28T09:35:16;1.75;93.33
68648;SHT31;55632;51.962;16.116;2022-11-28T09:40:20;1.88;93.30
68648;SHT31;55632;51.962;16.116;2022-11-28T09:45:23;1.94;93.29
68648;SHT31;55632;51.962;16.116;2022-11-28T09:50:27;1.99;93.25
68648;SHT31;55632;51.962;16.116;2022-11-28T09:55:52;2.12;93.37
68648;SHT31;55632;51.962;16.116;2022-11-28T10:01:16;2.20;93.10
68648;SHT31;55632;51.962;16.116;2022-11-28T10:22:06;2.43;92.63
68648;SHT31;55632;51.962;16.116;2022-11-28T10:27:12;2.48;92.68
68648;SHT31;55632;51.962;16.116;2022-11-28T10:32:22;2.54;92.52
68648;SHT31;55632;51.962;16.116;2022-11-28T10:37:28;2.67;92.59
68648;SHT31;55632;51.962;16.116;2022-11-28T10:42:40;2.73;92.47
68648;SHT31;55632;51.962;16.116;2022-11-28T10:58:30;3.03;92.35
68648;SHT31;55632;51.962;16.116;2022-11-28T11:03:33;3.15;92.28
68648;SHT31;55632;51.962;16.116;2022-11-28T11:08:37;3.19;92.11
68648;SHT31;55632;51.962;16.116;2022-11-28T11:19:00;3.37;91.73
68648;SHT31;55632;51.962;16.116;2022-11-28T11:24:17;3.45;91.45
68648;SHT31;55632;51.962;16.116;2022-11-28T11:29:29;3.54;91.44
68648;SHT31;55632;51.962;16.116;2022-11-28T11:34:44;3.64;91.37
68648;SHT31;55632;51.962;16.116;2022-11-28T11:39:50;3.75;91.14
68648;SHT31;55632;51.962;16.116;2022-11-28T11:44:52;3.85;90.94
68648;SHT31;55632;51.962;16.116;2022-11-28T11:50:02;3.95;90.70
68648;SHT31;55632;51.962;16.116;2022-11-28T11:55:16;4.05;90.54
68648;SHT31;55632;51.962;16.116;2022-11-28T12:00:21;4.14;90.39
68648;SHT31;55632;51.962;16.116;2022-11-28T12:05:53;4.21;89.95
68648;SHT31;55632;51.962;16.116;2022-11-28T12:21:12;4.29;88.94
68648;SHT31;55632;51.962;16.116;2022-11-28T12:26:18;4.31;89.09
68648;SHT31;55632;51.962;16.116;2022-11-28T12:31:37;4.34;88.86
68648;SHT31;55632;51.962;16.116;2022-11-28T12:36:51;4.33;88.66
68648;SHT31;55632;51.962;16.116;2022-11-28T13:14:09;4.20;87.82
68648;SHT31;55632;51.962;16.116;2022-11-28T13:24:58;4.17;87.76
68648;SHT31;55632;51.962;16.116;2022-11-28T13:30:21;4.11;87.74
68648;SHT31;55632;51.962;16.116;2022-11-28T13:35:23;4.10;87.76
68648;SHT31;55632;51.962;16.116;2022-11-28T13:45:40;4.07;87.82
68648;SHT31;55632;51.962;16.116;2022-11-28T13:50:58;4.05;87.77
68648;SHT31;55632;51.962;16.116;2022-11-28T13:56:26;4.02;87.72
68648;SHT31;55632;51.962;16.116;2022-11-28T14:01:45;4.02;87.75
68648;SHT31;55632;51.962;16.116;2022-11-28T14:06:51;4.00;87.73
68648;SHT31;55632;51.962;16.116;2022-11-28T14:28:37;3.90;87.81
68648;SHT31;55632;51.962;16.116;2022-11-28T14:33:43;3.86;87.89
68648;SHT31;55632;51.962;16.116;2022-11-28T14:38:45;3.85;87.94
68648;SHT31;55632;51.962;16.116;2022-11-28T14:43:47;3.82;88.03
68648;SHT31;55632;51.962;16.116;2022-11-28T14:53:58;3.83;88.15
68648;SHT31;55632;51.962;16.116;2022-11-28T14:58:59;3.81;88.17
68648;SHT31;55632;51.962;16.116;2022-11-28T15:14:34;3.77;88.37
68648;SHT31;55632;51.962;16.116;2022-11-28T15:19:39;3.77;88.45
68648;SHT31;55632;51.962;16.116;2022-11-28T15:24:50;3.74;88.47
68648;SHT31;55632;51.962;16.116;2022-11-28T15:29:56;3.72;88.44
68648;SHT31;55632;51.962;16.116;2022-11-28T15:35:01;3.71;88.47
68648;SHT31;55632;51.962;16.116;2022-11-28T15:40:03;3.71;88.54
68648;SHT31;55632;51.962;16.116;2022-11-28T15:45:23;3.74;88.49
68648;SHT31;55632;51.962;16.116;2022-11-28T15:50:26;3.72;88.42
68648;SHT31;55632;51.962;16.116;2022-11-28T15:55:30;3.72;88.29
68648;SHT31;55632;51.962;16.116;2022-11-28T16:00:32;3.75;88.14
68648;SHT31;55632;51.962;16.116;2022-11-28T16:05:35;3.72;87.94
68648;SHT31;55632;51.962;16.116;2022-11-28T16:10:38;3.75;87.79
68648;SHT31;55632;51.962;16.116;2022-11-28T16:15:39;3.68;87.66
68648;SHT31;55632;51.962;16.116;2022-11-28T16:20:46;3.65;87.65
68648;SHT31;55632;51.962;16.116;2022-11-28T16:31:20;3.53;87.70
68648;SHT31;55632;51.962;16.116;2022-11-28T16:36:33;3.47;87.77
68648;SHT31;55632;51.962;16.116;2022-11-28T16:41:36;3.43;87.71
68648;SHT31;55632;51.962;16.116;2022-11-28T16:46:38;3.36;87.76
68648;SHT31;55632;51.962;16.116;2022-11-28T16:51:39;3.33;87.81
68648;SHT31;55632;51.962;16.116;2022-11-28T16:56:42;3.27;87.91
68648;SHT31;55632;51.962;16.116;2022-11-28T17:01:46;3.23;88.00
68648;SHT31;55632;51.962;16.116;2022-11-28T17:06:47;3.22;88.13
68648;SHT31;55632;51.962;16.116;2022-11-28T17:17:24;3.23;88.43
68648;SHT31;55632;51.962;16.116;2022-11-28T17:22:31;3.26;88.55
68648;SHT31;55632;51.962;16.116;2022-11-28T17:27:33;3.33;88.56
68648;SHT31;55632;51.962;16.116;2022-11-28T17:32:33;3.40;88.65
68648;SHT31;55632;51.962;16.116;2022-11-28T17:37:34;3.48;88.55
68648;SHT31;55632;51.962;16.116;2022-11-28T17:42:35;3.53;88.53
68648;SHT31;55632;51.962;16.116;2022-11-28T17:47:36;3.61;88.42
68648;SHT31;55632;51.962;16.116;2022-11-28T17:52:36;3.68;88.31
68648;SHT31;55632;51.962;16.116;2022-11-28T17:57:37;3.72;88.23
68648;SHT31;55632;51.962;16.116;2022-11-28T18:02:38;3.77;88.09
68648;SHT31;55632;51.962;16.116;2022-11-28T18:07:39;3.78;88.03
68648;SHT31;55632;51.962;16.116;2022-11-28T18:12:44;3.81;87.92
68648;SHT31;55632;51.962;16.116;2022-11-28T18:17:45;3.79;87.73
68648;SHT31;55632;51.962;16.116;2022-11-28T18:22:46;3.81;87.65
68648;SHT31;55632;51.962;16.116;2022-11-28T18:27:47;3.77;87.50
68648;SHT31;55632;51.962;16.116;2022-11-28T18:32:49;3.72;87.53
68648;SHT31;55632;51.962;16.116;2022-11-28T18:37:50;3.67;87.49
68648;SHT31;55632;51.962;16.116;2022-11-28T18:42:50;3.62;87.44
68648;SHT31;55632;51.962;16.116;2022-11-28T18:47:54;3.58;87.49
68648;SHT31;55632;51.962;16.116;2022-11-28T18:52:55;3.53;87.53
68648;SHT31;55632;51.962;16.116;2022-11-28T18:57:56;3.47;87.59
68648;SHT31;55632;51.962;16.116;2022-11-28T19:02:57;3.40;87.66
68648;SHT31;55632;51.962;16.116;2022-11-28T19:07:58;3.37;87.72
68648;SHT31;55632;51.962;16.116;2022-11-28T19:12:59;3.34;87.78
68648;SHT31;55632;51.962;16.116;2022-11-28T19:18:00;3.31;87.87
68648;SHT31;55632;51.962;16.116;2022-11-28T19:23:01;3.27;87.93
68648;SHT31;55632;51.962;16.116;2022-11-28T19:28:02;3.23;87.97
68648;SHT31;55632;51.962;16.116;2022-11-28T19:33:03;3.20;88.07
68648;SHT31;55632;51.962;16.116;2022-11-28T19:38:04;3.19;88.07
68648;SHT31;55632;51.962;16.116;2022-11-28T19:43:06;3.16;88.16
68648;SHT31;55632;51.962;16.116;2022-11-28T19:48:06;3.16;88.16
68648;SHT31;55632;51.962;16.116;2022-11-28T19:53:07;3.15;88.23
68648;SHT31;55632;51.962;16.116;2022-11-28T19:58:08;3.17;88.37
68648;SHT31;55632;51.962;16.116;2022-11-28T20:03:10;3.15;88.41
68648;SHT31;55632;51.962;16.116;2022-11-28T20:08:11;3.20;88.51
68648;SHT31;55632;51.962;16.116;2022-11-28T20:13:13;3.22;88.52
68648;SHT31;55632;51.962;16.116;2022-11-28T20:18:14;3.27;88.63
68648;SHT31;55632;51.962;16.116;2022-11-28T20:23:14;3.36;88.63
68648;SHT31;55632;51.962;16.116;2022-11-28T20:28:16;3.43;88.62
68648;SHT31;55632;51.962;16.116;2022-11-28T20:33:17;3.50;88.56
68648;SHT31;55632;51.962;16.116;2022-11-28T20:38:18;3.55;88.49
68648;SHT31;55632;51.962;16.116;2022-11-28T20:43:19;3.57;88.45
68648;SHT31;55632;51.962;16.116;2022-11-28T20:48:20;3.65;88.36
68648;SHT31;55632;51.962;16.116;2022-11-28T20:53:21;3.68;88.27
68648;SHT31;55632;51.962;16.116;2022-11-28T20:58:22;3.74;88.17
68648;SHT31;55632;51.962;16.116;2022-11-28T21:03:23;3.79;88.11
68648;SHT31;55632;51.962;16.116;2022-11-28T21:08:25;3.89;88.05
68648;SHT31;55632;51.962;16.116;2022-11-28T21:13:30;3.92;87.97
68648;SHT31;55632;51.962;16.116;2022-11-28T21:18:31;3.93;87.88
68648;SHT31;55632;51.962;16.116;2022-11-28T21:23:32;3.99;87.79
68648;SHT31;55632;51.962;16.116;2022-11-28T21:28:39;3.96;87.70
68648;SHT31;55632;51.962;16.116;2022-11-28T21:33:40;4.03;87.60
68648;SHT31;55632;51.962;16.116;2022-11-28T21:38:40;4.03;87.46
68648;SHT31;55632;51.962;16.116;2022-11-28T21:43:41;4.05;87.35
68648;SHT31;55632;51.962;16.116;2022-11-28T21:48:42;4.05;87.30
68648;SHT31;55632;51.962;16.116;2022-11-28T21:53:43;4.02;87.16
68648;SHT31;55632;51.962;16.116;2022-11-28T21:58:44;3.99;87.12
68648;SHT31;55632;51.962;16.116;2022-11-28T22:03:48;3.97;87.07
68648;SHT31;55632;51.962;16.116;2022-11-28T22:08:54;3.92;87.07
68648;SHT31;55632;51.962;16.116;2022-11-28T22:13:56;3.89;87.13
68648;SHT31;55632;51.962;16.116;2022-11-28T22:18:57;3.85;87.09
68648;SHT31;55632;51.962;16.116;2022-11-28T22:23:58;3.79;87.17
68648;SHT31;55632;51.962;16.116;2022-11-28T22:29:03;3.75;87.14
68648;SHT31;55632;51.962;16.116;2022-11-28T22:34:05;3.72;87.25
68648;SHT31;55632;51.962;16.116;2022-11-28T22:39:09;3.69;87.29
68648;SHT31;55632;51.962;16.116;2022-11-28T22:44:10;3.65;87.26
68648;SHT31;55632;51.962;16.116;2022-11-28T22:49:17;3.64;87.35
68648;SHT31;55632;51.962;16.116;2022-11-28T22:54:18;3.64;87.35
68648;SHT31;55632;51.962;16.116;2022-11-28T22:59:24;3.61;87.39
68648;SHT31;55632;51.962;16.116;2022-11-28T23:04:24;3.61;87.49
68648;SHT31;55632;51.962;16.116;2022-11-28T23:09:25;3.61;87.54
68648;SHT31;55632;51.962;16.116;2022-11-28T23:14:30;3.65;87.61
68648;SHT31;55632;51.962;16.116;2022-11-28T23:19:32;3.68;87.63
68648;SHT31;55632;51.962;16.116;2022-11-28T23:24:33;3.68;87.57
68648;SHT31;55632;51.962;16.116;2022-11-28T23:29:34;3.71;87.50
68648;SHT31;55632;51.962;16.116;2022-11-28T23:34:35;3.74;87.43
68648;SHT31;55632;51.962;16.116;2022-11-28T23:39:36;3.74;87.37
68648;SHT31;55632;51.962;16.116;2022-11-28T23:44:39;3.75;87.42
68648;SHT31;55632;51.962;16.116;2022-11-28T23:49:40;3.75;87.29
68648;SHT31;55632;51.962;16.116;2022-11-28T23:54:41;3.77;87.28
68648;SHT31;55632;51.962;16.116;2022-11-28T23:59:44;3.74;87.20
